createdAt,value
2023-02-11T00:01:33.464Z,32.88
2023-02-11T00:04:01.944Z,33.12
2023-02-11T00:06:31.856Z,33.00
2023-02-11T00:08:59.398Z,33.21
2023-02-11T00:11:30.920Z,33.30
2023-02-11T00:14:00.214Z,33.30
2023-02-11T00:16:27.957Z,33.03
2023-02-11T00:18:55.798Z,32.34
2023-02-11T00:21:25.969Z,32.97
2023-02-11T00:23:54.965Z,33.22
2023-02-11T00:26:25.810Z,33.05
2023-02-11T00:28:53.702Z,33.07
2023-02-11T00:31:23.207Z,33.06
2023-02-11T00:33:50.682Z,33.04
2023-02-11T00:36:20.809Z,32.86
2023-02-11T00:38:49.970Z,32.86
2023-02-11T00:41:18.243Z,32.83
2023-02-11T00:43:46.159Z,32.64
2023-02-11T00:46:14.029Z,32.45
2023-02-11T00:48:41.552Z,32.64
2023-02-11T00:51:09.532Z,32.44
2023-02-11T00:53:37.097Z,32.39
2023-02-11T00:56:04.833Z,32.37
2023-02-11T00:58:32.154Z,32.37
2023-02-11T01:00:59.581Z,32.40
2023-02-11T01:03:45.516Z,32.37
2023-02-11T01:09:39.127Z,32.12
2023-02-11T01:12:06.626Z,32.18
2023-02-11T01:14:33.942Z,32.21
2023-02-11T01:17:01.246Z,32.14
2023-02-11T01:19:28.627Z,32.25
2023-02-11T01:21:55.926Z,32.29
2023-02-11T01:24:23.173Z,32.19
2023-02-11T01:26:50.489Z,32.08
2023-02-11T01:29:17.782Z,32.07
2023-02-11T01:31:45.089Z,32.02
2023-02-11T01:34:12.625Z,32.11
2023-02-11T01:36:40.241Z,31.91
2023-02-11T01:39:08.763Z,31.96
2023-02-11T01:41:37.019Z,31.98
2023-02-11T01:44:27.552Z,32.15
2023-02-11T01:46:55.689Z,31.83
2023-02-11T01:49:32.930Z,32.03
2023-02-11T01:52:23.950Z,31.91
2023-02-11T01:55:13.195Z,32.21
2023-02-11T01:57:44.641Z,32.11
2023-02-11T02:00:21.601Z,32.35
2023-02-11T02:03:05.220Z,32.12
2023-02-11T02:05:35.438Z,32.44
2023-02-11T02:08:23.806Z,32.26
2023-02-11T02:10:56.458Z,32.15
2023-02-11T02:13:25.276Z,32.12
2023-02-11T02:15:55.901Z,32.07
2023-02-11T02:18:41.745Z,32.16
2023-02-11T02:21:36.064Z,32.11
2023-02-11T02:24:34.125Z,32.04
2023-02-11T02:27:16.013Z,32.19
2023-02-11T02:30:04.882Z,32.21
2023-02-11T02:32:47.767Z,31.94
2023-02-11T02:35:30.206Z,32.18
2023-02-11T02:38:10.197Z,32.27
2023-02-11T02:40:52.534Z,32.17
2023-02-11T02:43:21.618Z,32.23
2023-02-11T02:45:49.267Z,32.28
2023-02-11T02:48:29.596Z,32.41
2023-02-11T02:51:10.733Z,32.24
2023-02-11T02:53:48.651Z,32.48
2023-02-11T02:56:59.415Z,32.53
2023-02-11T02:59:45.365Z,32.63
2023-02-11T03:02:29.229Z,32.63
2023-02-11T03:05:05.374Z,32.38
2023-02-11T03:07:41.662Z,32.40
2023-02-11T03:10:31.444Z,32.50
2023-02-11T03:12:59.882Z,32.65
2023-02-11T03:15:30.997Z,32.78
2023-02-11T03:18:01.095Z,32.75
2023-02-11T03:20:33.105Z,32.80
2023-02-11T03:23:21.252Z,32.81
2023-02-11T03:26:11.441Z,32.63
2023-02-11T03:29:03.428Z,32.61
2023-02-11T03:31:34.419Z,32.67
2023-02-11T03:34:08.799Z,32.75
2023-02-11T03:36:49.471Z,32.71
2023-02-11T03:39:21.357Z,33.03
2023-02-11T03:41:50.638Z,32.88
2023-02-11T03:44:19.940Z,32.89
2023-02-11T03:46:51.505Z,33.10
2023-02-11T03:49:21.785Z,33.04
2023-02-11T03:51:52.693Z,32.87
2023-02-11T03:54:27.647Z,33.09
2023-02-11T03:56:57.783Z,33.06
2023-02-11T03:59:25.533Z,33.16
2023-02-11T04:01:53.166Z,32.87
2023-02-11T04:04:20.793Z,33.19
2023-02-11T04:06:48.104Z,32.79
2023-02-11T04:09:15.484Z,33.10
2023-02-11T04:11:42.712Z,32.92
2023-02-11T04:14:10.004Z,33.21
2023-02-11T04:16:37.432Z,33.06
2023-02-11T04:19:05.180Z,33.11
2023-02-11T04:21:32.457Z,33.12
2023-02-11T04:23:59.767Z,33.05
2023-02-11T04:26:27.131Z,32.76
2023-02-11T04:28:54.281Z,32.93
2023-02-11T04:31:21.613Z,32.96
2023-02-11T04:33:48.905Z,33.00
2023-02-11T04:36:16.122Z,32.99
2023-02-11T04:38:43.395Z,32.99
2023-02-11T04:41:10.682Z,33.14
2023-02-11T04:43:38.062Z,33.06
2023-02-11T04:46:05.536Z,32.89
2023-02-11T04:48:32.880Z,33.10
2023-02-11T04:51:00.176Z,33.27
2023-02-11T04:53:27.653Z,33.04
2023-02-11T04:55:55.160Z,33.25
2023-02-11T04:58:22.353Z,33.42
2023-02-11T05:00:50.034Z,33.39
2023-02-11T05:03:17.667Z,33.39
2023-02-11T05:05:44.998Z,33.45
2023-02-11T05:08:12.747Z,33.27
2023-02-11T05:10:40.106Z,33.32
2023-02-11T05:13:07.479Z,33.39
2023-02-11T05:15:34.798Z,33.38
2023-02-11T05:18:02.100Z,33.42
2023-02-11T05:20:29.430Z,33.49
2023-02-11T05:22:56.764Z,33.47
2023-02-11T05:25:24.012Z,33.51
2023-02-11T05:27:51.377Z,33.35
2023-02-11T05:30:18.755Z,33.48
2023-02-11T05:32:46.112Z,33.38
2023-02-11T05:35:13.756Z,33.60
2023-02-11T05:37:41.062Z,33.26
2023-02-11T05:40:08.885Z,33.50
2023-02-11T05:42:36.251Z,33.35
2023-02-11T05:45:03.765Z,33.24
2023-02-11T05:47:30.959Z,33.11
2023-02-11T05:49:58.226Z,33.26
2023-02-11T05:52:25.613Z,33.18
2023-02-11T05:54:52.905Z,33.17
2023-02-11T05:57:20.189Z,33.15
2023-02-11T05:59:47.530Z,33.32
2023-02-11T06:02:14.982Z,33.17
2023-02-11T06:04:42.325Z,33.17
2023-02-11T06:07:09.649Z,33.13
2023-02-11T06:09:37.139Z,33.18
2023-02-11T06:12:05.063Z,33.25
2023-02-11T06:14:34.194Z,33.23
2023-02-11T06:17:01.691Z,33.22
2023-02-11T06:19:28.977Z,33.21
2023-02-11T06:21:56.784Z,33.26
2023-02-11T06:24:51.080Z,33.24
2023-02-11T06:27:12.705Z,33.26
2023-02-11T06:29:39.988Z,33.33
2023-02-11T06:32:11.640Z,33.25
2023-02-11T06:34:43.266Z,33.45
2023-02-11T06:37:10.518Z,33.43
2023-02-11T06:39:37.916Z,33.48
2023-02-11T06:42:07.925Z,33.35
2023-02-11T06:44:35.314Z,33.34
2023-02-11T06:47:02.575Z,33.25
2023-02-11T06:49:30.032Z,33.24
2023-02-11T06:51:57.367Z,33.28
2023-02-11T06:54:24.683Z,33.32
2023-02-11T06:56:52.105Z,33.20
2023-02-11T06:59:20.756Z,33.02
2023-02-11T07:01:48.618Z,32.95
2023-02-11T07:04:16.267Z,32.90
2023-02-11T07:06:43.623Z,32.79
2023-02-11T07:09:10.924Z,32.82
2023-02-11T07:11:38.112Z,32.86
2023-02-11T07:14:11.167Z,32.63
2023-02-11T07:16:38.660Z,32.66
2023-02-11T07:19:06.022Z,32.62
2023-02-11T07:21:33.221Z,32.83
2023-02-11T07:24:00.450Z,32.65
2023-02-11T07:26:28.919Z,32.88
2023-02-11T07:28:56.396Z,32.98
2023-02-11T07:31:26.776Z,33.04
2023-02-11T07:33:56.629Z,33.11
2023-02-11T07:36:23.853Z,32.76
2023-02-11T07:38:51.077Z,33.17
2023-02-11T07:41:21.200Z,33.28
2023-02-11T07:43:49.043Z,33.28
2023-02-11T07:46:27.608Z,33.13
2023-02-11T07:48:55.540Z,33.28
2023-02-11T07:51:28.496Z,33.24
2023-02-11T07:53:57.625Z,33.21
2023-02-11T07:56:25.039Z,33.25
2023-02-11T07:58:52.320Z,33.11
2023-02-11T08:01:24.958Z,33.18
2023-02-11T08:03:53.127Z,33.51
2023-02-11T08:06:22.670Z,33.15
2023-02-11T08:08:50.877Z,33.32
2023-02-11T08:11:20.372Z,33.27
2023-02-11T08:13:48.126Z,33.54
2023-02-11T08:16:27.305Z,33.54
2023-02-11T08:18:57.681Z,33.47
2023-02-11T08:21:25.923Z,33.55
2023-02-11T08:23:53.811Z,33.59
2023-02-11T08:26:27.288Z,33.54
2023-02-11T08:28:56.365Z,33.52
2023-02-11T08:31:26.933Z,33.53
2023-02-11T08:33:57.861Z,33.41
2023-02-11T08:36:29.155Z,33.55
2023-02-11T08:39:17.934Z,33.35
2023-02-11T08:41:48.930Z,33.50
2023-02-11T08:44:17.713Z,33.72
2023-02-11T08:46:45.008Z,33.56
2023-02-11T08:49:12.383Z,33.62
2023-02-11T08:51:40.073Z,33.59
2023-02-11T08:54:09.589Z,33.20
2023-02-11T08:56:38.190Z,33.70
2023-02-11T08:59:06.214Z,34.20
2023-02-11T09:01:42.422Z,34.24
2023-02-11T09:04:10.576Z,32.75
2023-02-11T09:06:37.822Z,29.29
2023-02-11T09:09:05.360Z,27.64
2023-02-11T09:11:35.215Z,27.55
2023-02-11T09:14:04.392Z,27.51
2023-02-11T09:16:34.766Z,27.59
2023-02-11T09:19:03.802Z,30.62
2023-02-11T09:21:31.203Z,31.33
2023-02-11T09:23:58.750Z,31.98
2023-02-11T09:26:31.778Z,32.08
2023-02-11T09:28:59.842Z,32.57
2023-02-11T09:31:29.589Z,32.81
2023-02-11T09:33:59.971Z,32.73
2023-02-11T09:36:30.302Z,32.86
2023-02-11T09:39:02.249Z,32.85
2023-02-11T09:41:39.483Z,32.58
2023-02-11T09:44:09.684Z,32.52
2023-02-11T09:46:42.229Z,32.51
2023-02-11T09:49:21.950Z,33.01
2023-02-11T09:51:57.133Z,33.31
2023-02-11T09:54:34.566Z,33.04
2023-02-11T09:57:02.066Z,33.00
2023-02-11T09:59:29.384Z,32.02
2023-02-11T10:02:05.106Z,31.43
2023-02-11T10:05:00.813Z,32.48
2023-02-11T10:07:54.055Z,32.59
2023-02-11T10:10:45.412Z,32.75
2023-02-11T10:13:43.757Z,32.88
2023-02-11T10:16:23.208Z,32.89
2023-02-11T10:19:08.704Z,32.73
2023-02-11T10:21:50.610Z,32.79
2023-02-11T10:24:18.397Z,32.59
2023-02-11T10:26:46.495Z,32.74
2023-02-11T10:29:42.180Z,32.58
2023-02-11T10:32:33.431Z,32.81
2023-02-11T10:35:10.433Z,32.68
2023-02-11T10:37:37.942Z,33.04
2023-02-11T10:40:07.505Z,33.25
2023-02-11T10:42:35.915Z,33.28
2023-02-11T10:45:07.296Z,33.27
2023-02-11T10:47:39.684Z,33.03
2023-02-11T10:50:24.172Z,31.49
2023-02-11T10:52:51.640Z,32.41
2023-02-11T10:55:26.126Z,32.56
2023-02-11T10:57:57.942Z,32.76
2023-02-11T11:00:36.201Z,32.96
2023-02-11T11:03:25.540Z,32.64
2023-02-11T11:05:58.485Z,33.14
2023-02-11T11:08:41.220Z,32.79
2023-02-11T11:11:12.256Z,30.19
2023-02-11T11:13:41.803Z,26.11
2023-02-11T11:16:12.105Z,29.21
2023-02-11T11:18:45.221Z,30.92
2023-02-11T11:21:36.641Z,30.93
2023-02-11T11:24:04.544Z,31.56
2023-02-11T11:26:44.707Z,31.50
2023-02-11T11:29:18.800Z,32.15
2023-02-11T11:31:56.991Z,31.76
2023-02-11T11:34:30.147Z,32.10
2023-02-11T11:36:58.512Z,31.54
2023-02-11T11:39:29.815Z,32.01
2023-02-11T11:42:00.606Z,32.03
2023-02-11T11:44:37.571Z,32.21
2023-02-11T11:47:31.470Z,32.30
2023-02-11T11:50:19.506Z,32.52
2023-02-11T11:52:54.778Z,32.41
2023-02-11T11:55:26.972Z,32.38
2023-02-11T11:57:54.255Z,32.74
2023-02-11T12:00:32.452Z,32.59
2023-02-11T12:03:21.304Z,32.92
2023-02-11T12:06:11.801Z,32.81
2023-02-11T12:09:16.975Z,33.16
2023-02-11T12:11:59.464Z,33.09
2023-02-11T12:14:53.328Z,33.29
2023-02-11T12:17:39.018Z,33.15
2023-02-11T12:20:32.945Z,33.45
2023-02-11T12:23:11.506Z,33.65
2023-02-11T12:25:54.337Z,33.73
2023-02-11T12:28:24.472Z,33.80
2023-02-11T12:30:57.815Z,34.22
2023-02-11T12:33:38.454Z,34.71
2023-02-11T12:36:12.968Z,35.64
2023-02-11T12:38:43.259Z,36.43
2023-02-11T12:42:01.825Z,36.94
2023-02-11T12:44:32.229Z,37.24
2023-02-11T12:47:14.227Z,37.50
2023-02-11T12:49:49.818Z,37.91
2023-02-11T12:52:44.501Z,37.94
2023-02-11T12:55:24.368Z,39.28
2023-02-11T12:57:55.024Z,39.29
2023-02-11T13:00:45.364Z,38.99
2023-02-11T13:03:18.954Z,39.38
2023-02-11T13:05:54.198Z,39.09
2023-02-11T13:08:50.458Z,40.12
2023-02-11T13:11:22.973Z,39.68
2023-02-11T13:13:53.042Z,40.26
2023-02-11T13:16:39.530Z,39.54
2023-02-11T13:19:26.819Z,39.18
2023-02-11T13:22:09.395Z,38.90
2023-02-11T13:24:53.721Z,38.66
2023-02-11T13:27:21.358Z,38.52
2023-02-11T13:30:04.322Z,38.66
2023-02-11T13:32:56.701Z,38.49
2023-02-11T13:35:33.000Z,38.51
2023-02-11T13:38:13.220Z,38.67
2023-02-11T13:40:41.161Z,38.38
2023-02-11T13:43:21.998Z,38.51
2023-02-11T13:45:51.517Z,38.29
2023-02-11T13:48:31.684Z,38.36
2023-02-11T13:51:02.809Z,38.29
2023-02-11T13:53:44.551Z,38.26
2023-02-11T13:56:32.443Z,38.18
2023-02-11T13:59:02.458Z,38.07
2023-02-11T14:02:10.969Z,37.98
2023-02-11T14:05:22.854Z,38.06
2023-02-11T14:08:33.480Z,37.85
2023-02-11T14:11:12.317Z,37.76
2023-02-11T14:13:48.482Z,37.64
2023-02-11T14:16:31.587Z,37.74
2023-02-11T14:19:03.106Z,37.75
2023-02-11T14:21:30.473Z,37.80
2023-02-11T14:24:10.888Z,37.76
2023-02-11T14:26:49.510Z,37.60
2023-02-11T14:29:34.462Z,37.55
2023-02-11T14:32:23.311Z,37.48
2023-02-11T14:35:02.935Z,37.22
2023-02-11T14:37:36.115Z,36.87
2023-02-11T14:40:06.439Z,36.97
2023-02-11T14:42:37.249Z,37.09
2023-02-11T14:45:08.696Z,36.79
2023-02-11T14:47:45.278Z,36.87
2023-02-11T14:50:32.100Z,36.80
2023-02-11T14:53:01.874Z,36.99
2023-02-11T14:55:33.521Z,36.96
2023-02-11T14:58:18.947Z,36.85
2023-02-11T15:01:00.931Z,37.04
2023-02-11T15:03:38.831Z,36.85
2023-02-11T15:06:06.472Z,36.91
2023-02-11T15:08:38.333Z,36.89
2023-02-11T15:11:11.826Z,37.04
2023-02-11T15:13:39.392Z,37.10
2023-02-11T15:16:10.094Z,37.09
2023-02-11T15:18:42.062Z,36.81
2023-02-11T15:21:10.412Z,36.68
2023-02-11T15:23:39.019Z,36.62
2023-02-11T15:26:21.369Z,36.71
2023-02-11T15:28:51.934Z,36.60
2023-02-11T15:31:23.389Z,36.92
2023-02-11T15:33:52.157Z,37.02
2023-02-11T15:36:28.512Z,37.12
2023-02-11T15:39:32.960Z,37.14
2023-02-11T15:42:38.064Z,37.12
2023-02-11T15:45:14.588Z,37.12
2023-02-11T15:47:54.281Z,37.00
2023-02-11T15:50:25.554Z,36.92
2023-02-11T15:52:55.156Z,37.02
2023-02-11T15:55:23.560Z,37.12
2023-02-11T15:58:02.041Z,37.20
2023-02-11T16:00:36.123Z,37.10
2023-02-11T16:03:04.675Z,37.13
2023-02-11T16:05:35.469Z,37.11
2023-02-11T16:08:25.648Z,37.11
2023-02-11T16:11:03.351Z,37.04
2023-02-11T16:13:34.742Z,37.06
2023-02-11T16:16:18.219Z,37.07
2023-02-11T16:19:03.345Z,37.47
2023-02-11T16:21:39.301Z,37.39
2023-02-11T16:24:21.592Z,37.18
2023-02-11T16:26:55.589Z,37.16
2023-02-11T16:29:31.834Z,36.92
2023-02-11T16:32:09.645Z,37.05
2023-02-11T16:34:37.343Z,37.06
2023-02-11T16:37:06.169Z,36.75
2023-02-11T16:39:33.942Z,36.88
2023-02-11T16:42:01.588Z,36.54
2023-02-11T16:44:29.472Z,36.46
2023-02-11T16:47:00.062Z,36.74
2023-02-11T16:49:33.885Z,36.38
2023-02-11T16:52:05.904Z,36.28
2023-02-11T16:54:33.951Z,36.20
2023-02-11T16:57:05.988Z,36.12
2023-02-11T16:59:33.306Z,36.18
2023-02-11T17:02:00.714Z,36.17
2023-02-11T17:04:31.554Z,35.82
2023-02-11T17:06:59.406Z,36.00
2023-02-11T17:09:30.525Z,36.05
2023-02-11T17:11:58.856Z,36.02
2023-02-11T17:14:26.241Z,36.04
2023-02-11T17:16:53.628Z,36.22
2023-02-11T17:19:21.824Z,36.12
2023-02-11T17:21:51.460Z,36.10
2023-02-11T17:24:20.348Z,35.81
2023-02-11T17:26:48.396Z,35.79
2023-02-11T17:29:21.020Z,35.89
2023-02-11T17:31:48.820Z,35.78
2023-02-11T17:34:16.872Z,35.83
2023-02-11T17:36:44.461Z,35.71
2023-02-11T17:39:12.319Z,35.57
2023-02-11T17:41:40.592Z,35.57
2023-02-11T17:44:09.017Z,36.46
2023-02-11T17:46:36.761Z,36.92
2023-02-11T17:49:04.476Z,37.65
2023-02-11T17:51:37.679Z,37.34
2023-02-11T17:54:06.833Z,37.49
2023-02-11T17:56:37.076Z,38.27
2023-02-11T17:59:06.274Z,37.91
2023-02-11T18:01:34.372Z,38.00
2023-02-11T18:04:02.576Z,38.78
2023-02-11T18:06:30.331Z,38.22
2023-02-11T18:08:59.658Z,38.84
2023-02-11T18:11:27.919Z,37.85
2023-02-11T18:13:55.441Z,37.58
2023-02-11T18:16:25.175Z,38.39
2023-02-11T18:18:52.664Z,37.73
2023-02-11T18:21:21.806Z,37.74
2023-02-11T18:23:49.698Z,38.09
2023-02-11T18:26:19.734Z,38.03
2023-02-11T18:28:50.178Z,37.88
2023-02-11T18:31:24.698Z,37.84
2023-02-11T18:33:58.580Z,37.80
2023-02-11T18:36:26.236Z,37.59
2023-02-11T18:38:54.379Z,37.51
2023-02-11T18:41:21.763Z,37.46
2023-02-11T18:43:49.289Z,37.77
2023-02-11T18:46:16.767Z,37.62
2023-02-11T18:48:45.032Z,37.30
2023-02-11T18:51:16.155Z,37.13
2023-02-11T18:53:43.516Z,37.20
2023-02-11T18:56:16.195Z,37.07
2023-02-11T18:58:43.703Z,37.02
2023-02-11T19:01:15.053Z,37.04
2023-02-11T19:03:43.815Z,37.18
2023-02-11T19:06:35.240Z,37.22
2023-02-11T19:09:06.926Z,37.25
2023-02-11T19:11:46.934Z,36.90
2023-02-11T19:14:16.664Z,36.78
2023-02-11T19:16:46.023Z,36.82
2023-02-11T19:19:14.050Z,36.87
2023-02-11T19:21:43.694Z,37.26
2023-02-11T19:24:12.571Z,36.93
2023-02-11T19:26:39.928Z,36.82
2023-02-11T19:29:07.441Z,37.00
2023-02-11T19:31:37.483Z,36.86
2023-02-11T19:34:05.483Z,36.81
2023-02-11T19:36:36.295Z,36.69
2023-02-11T19:39:05.096Z,36.83
2023-02-11T19:41:33.739Z,36.76
2023-02-11T19:44:01.946Z,36.70
2023-02-11T19:46:32.508Z,36.65
2023-02-11T19:49:00.794Z,37.00
2023-02-11T19:51:28.650Z,36.66
2023-02-11T19:53:58.128Z,36.51
2023-02-11T19:56:25.459Z,36.61
2023-02-11T19:58:52.719Z,36.48
2023-02-11T20:01:22.231Z,36.38
2023-02-11T20:03:51.566Z,36.35
2023-02-11T20:06:24.757Z,36.25
2023-02-11T20:08:59.289Z,36.33
2023-02-11T20:11:28.999Z,36.41
2023-02-11T20:13:56.975Z,36.18
2023-02-11T20:16:40.650Z,36.22
2023-02-11T20:19:16.868Z,36.23
2023-02-11T20:21:47.071Z,36.31
2023-02-11T20:24:19.133Z,36.32
2023-02-11T20:26:48.338Z,36.13
2023-02-11T20:29:17.867Z,36.27
2023-02-11T20:31:45.668Z,36.24
2023-02-11T20:34:13.462Z,36.47
2023-02-11T20:36:41.250Z,36.43
2023-02-11T20:39:10.417Z,36.16
2023-02-11T20:41:41.111Z,36.14
2023-02-11T20:44:10.959Z,35.86
2023-02-11T20:46:41.762Z,36.05
2023-02-11T20:49:14.182Z,36.13
2023-02-11T20:51:41.713Z,36.00
2023-02-11T20:54:12.885Z,35.74
2023-02-11T20:56:40.233Z,35.95
2023-02-11T20:59:07.860Z,35.81
2023-02-11T21:01:37.910Z,35.56
2023-02-11T21:04:08.334Z,35.68
2023-02-11T21:06:39.455Z,35.73
2023-02-11T21:09:08.724Z,35.45
2023-02-11T21:11:36.066Z,35.53
2023-02-11T21:14:03.564Z,35.58
2023-02-11T21:16:31.635Z,35.68
2023-02-11T21:19:00.545Z,35.82
2023-02-11T21:21:27.810Z,35.56
2023-02-11T21:23:56.183Z,35.40
2023-02-11T21:26:23.486Z,35.46
2023-02-11T21:28:51.995Z,35.45
2023-02-11T21:31:27.068Z,35.45
2023-02-11T21:33:55.575Z,35.35
2023-02-11T21:36:23.978Z,35.38
2023-02-11T21:38:52.021Z,35.20
2023-02-11T21:41:22.401Z,35.23
2023-02-11T21:43:50.901Z,35.22
2023-02-11T21:46:19.436Z,35.17
2023-02-11T21:48:47.233Z,35.20
2023-02-11T21:51:23.495Z,35.24
2023-02-11T21:53:55.017Z,35.17
2023-02-11T21:56:22.704Z,35.24
2023-02-11T21:58:53.409Z,35.17
2023-02-11T22:01:23.512Z,35.10
2023-02-11T22:03:50.963Z,35.05
2023-02-11T22:06:27.224Z,35.20
2023-02-11T22:08:55.392Z,34.87
2023-02-11T22:11:23.760Z,35.08
2023-02-11T22:13:55.553Z,35.19
2023-02-11T22:16:23.890Z,34.99
2023-02-11T22:18:51.889Z,35.10
2023-02-11T22:21:21.802Z,34.96
2023-02-11T22:23:49.986Z,34.91
2023-02-11T22:26:21.275Z,34.93
2023-02-11T22:28:49.622Z,34.77
2023-02-11T22:31:19.681Z,34.75
2023-02-11T22:33:47.385Z,34.84
2023-02-11T22:36:21.301Z,34.94
2023-02-11T22:38:49.577Z,35.19
2023-02-11T22:41:17.858Z,34.97
2023-02-11T22:43:45.657Z,35.16
2023-02-11T22:46:15.794Z,35.07
2023-02-11T22:48:43.947Z,34.80
2023-02-11T22:51:16.946Z,34.83
2023-02-11T22:53:44.551Z,32.21
2023-02-11T22:56:15.606Z,33.21
2023-02-11T22:58:43.550Z,34.10
2023-02-11T23:01:12.825Z,33.92
2023-02-11T23:03:40.543Z,34.07
2023-02-11T23:06:09.045Z,34.56
2023-02-11T23:08:39.210Z,34.54
2023-02-11T23:11:09.774Z,34.34
2023-02-11T23:13:39.563Z,34.87
2023-02-11T23:16:09.596Z,34.38
2023-02-11T23:18:39.315Z,34.16
2023-02-11T23:21:28.008Z,34.12
2023-02-11T23:23:57.837Z,34.12
2023-02-11T23:26:25.835Z,34.32
2023-02-11T23:28:53.615Z,33.96
2023-02-11T23:31:22.654Z,33.91
2023-02-11T23:33:51.278Z,34.17
2023-02-11T23:36:19.749Z,34.10
2023-02-11T23:38:47.670Z,33.79
2023-02-11T23:41:15.958Z,33.99
2023-02-11T23:43:43.899Z,34.02
2023-02-11T23:46:11.472Z,33.94
2023-02-11T23:48:40.420Z,33.69
2023-02-11T23:51:09.788Z,33.86
2023-02-11T23:53:38.580Z,33.70
2023-02-11T23:56:08.784Z,33.75
2023-02-11T23:58:36.412Z,33.66
